sensor_id;sensor_type;location;lat;lon;timestamp;P1;durP1;ratioP1;P2;durP2;ratioP2
36423;SDS011;22458;45.328;9.514;2022-08-04T00:02:02;9.48;;;7.07;;
36423;SDS011;22458;45.328;9.514;2022-08-04T00:05:03;7.10;;;6.40;;
36423;SDS011;22458;45.328;9.514;2022-08-04T00:07:24;7.88;;;6.57;;
36423;SDS011;22458;45.328;9.514;2022-08-04T00:10:03;9.85;;;6.88;;
36423;SDS011;22458;45.328;9.514;2022-08-04T00:12:31;7.93;;;7.13;;
36423;SDS011;22458;45.328;9.514;2022-08-04T00:15:00;8.35;;;7.47;;
36423;SDS011;22458;45.328;9.514;2022-08-04T00:17:28;11.43;;;6.93;;
36423;SDS011;22458;45.328;9.514;2022-08-04T00:49:57;12.93;;;9.33;;
36423;SDS011;22458;45.328;9.514;2022-08-04T00:53:05;11.10;;;8.38;;
36423;SDS011;22458;45.328;9.514;2022-08-04T00:58:51;11.13;;;8.77;;
36423;SDS011;22458;45.328;9.514;2022-08-04T01:09:48;10.63;;;9.52;;
36423;SDS011;22458;45.328;9.514;2022-08-04T01:14:49;11.10;;;9.88;;
36423;SDS011;22458;45.328;9.514;2022-08-04T01:18:21;11.50;;;10.30;;
36423;SDS011;22458;45.328;9.514;2022-08-04T01:20:17;12.88;;;10.05;;
36423;SDS011;22458;45.328;9.514;2022-08-04T01:31:23;10.60;;;9.60;;
36423;SDS011;22458;45.328;9.514;2022-08-04T01:33:54;10.45;;;9.40;;
36423;SDS011;22458;45.328;9.514;2022-08-04T01:36:24;13.75;;;10.20;;
36423;SDS011;22458;45.328;9.514;2022-08-04T01:38:50;10.68;;;9.63;;
36423;SDS011;22458;45.328;9.514;2022-08-04T01:41:18;11.43;;;10.32;;
36423;SDS011;22458;45.328;9.514;2022-08-04T01:43:45;12.55;;;9.63;;
36423;SDS011;22458;45.328;9.514;2022-08-04T01:46:12;12.95;;;9.90;;
36423;SDS011;22458;45.328;9.514;2022-08-04T01:48:44;11.20;;;9.50;;
36423;SDS011;22458;45.328;9.514;2022-08-04T01:51:11;12.60;;;9.77;;
36423;SDS011;22458;45.328;9.514;2022-08-04T01:53:41;11.00;;;9.90;;
36423;SDS011;22458;45.328;9.514;2022-08-04T01:56:08;11.30;;;10.07;;
36423;SDS011;22458;45.328;9.514;2022-08-04T01:58:36;12.45;;;11.15;;
36423;SDS011;22458;45.328;9.514;2022-08-04T02:01:07;10.93;;;9.68;;
36423;SDS011;22458;45.328;9.514;2022-08-04T02:03:36;14.60;;;10.55;;
36423;SDS011;22458;45.328;9.514;2022-08-04T02:11:40;11.48;;;10.27;;
36423;SDS011;22458;45.328;9.514;2022-08-04T02:22:15;10.65;;;9.55;;
36423;SDS011;22458;45.328;9.514;2022-08-04T02:24:47;10.30;;;9.20;;
36423;SDS011;22458;45.328;9.514;2022-08-04T02:27:14;15.52;;;10.23;;
36423;SDS011;22458;45.328;9.514;2022-08-04T02:29:48;15.45;;;10.05;;
36423;SDS011;22458;45.328;9.514;2022-08-04T02:32:25;15.07;;;10.18;;
36423;SDS011;22458;45.328;9.514;2022-08-04T02:34:53;11.90;;;10.43;;
36423;SDS011;22458;45.328;9.514;2022-08-04T02:37:30;11.50;;;10.32;;
36423;SDS011;22458;45.328;9.514;2022-08-04T02:39:58;11.15;;;9.60;;
36423;SDS011;22458;45.328;9.514;2022-08-04T02:42:25;11.50;;;10.02;;
36423;SDS011;22458;45.328;9.514;2022-08-04T02:44:53;12.82;;;10.05;;
36423;SDS011;22458;45.328;9.514;2022-08-04T02:47:23;11.82;;;9.40;;
36423;SDS011;22458;45.328;9.514;2022-08-04T02:49:51;10.48;;;9.38;;
36423;SDS011;22458;45.328;9.514;2022-08-04T02:52:18;11.80;;;10.70;;
36423;SDS011;22458;45.328;9.514;2022-08-04T02:54:46;11.60;;;10.40;;
36423;SDS011;22458;45.328;9.514;2022-08-04T02:57:16;13.63;;;10.45;;
36423;SDS011;22458;45.328;9.514;2022-08-04T03:05:27;14.85;;;11.48;;
36423;SDS011;22458;45.328;9.514;2022-08-04T03:07:58;15.10;;;11.27;;
36423;SDS011;22458;45.328;9.514;2022-08-04T03:16:00;14.00;;;11.23;;
36423;SDS011;22458;45.328;9.514;2022-08-04T03:43:13;12.52;;;10.85;;
36423;SDS011;22458;45.328;9.514;2022-08-04T03:51:17;11.95;;;10.68;;
36423;SDS011;22458;45.328;9.514;2022-08-04T04:00:19;11.52;;;10.30;;
36423;SDS011;22458;45.328;9.514;2022-08-04T04:32:35;10.85;;;9.75;;
36423;SDS011;22458;45.328;9.514;2022-08-04T04:35:27;11.23;;;9.50;;
36423;SDS011;22458;45.328;9.514;2022-08-04T04:46:11;14.48;;;10.30;;
36423;SDS011;22458;45.328;9.514;2022-08-04T04:49:00;14.05;;;9.68;;
36423;SDS011;22458;45.328;9.514;2022-08-04T04:51:32;12.85;;;9.32;;
36423;SDS011;22458;45.328;9.514;2022-08-04T04:56:38;12.60;;;10.70;;
36423;SDS011;22458;45.328;9.514;2022-08-04T04:59:10;10.93;;;9.82;;
36423;SDS011;22458;45.328;9.514;2022-08-04T05:09:50;11.85;;;10.43;;
36423;SDS011;22458;45.328;9.514;2022-08-04T05:15:09;13.15;;;10.95;;
36423;SDS011;22458;45.328;9.514;2022-08-04T05:17:37;11.10;;;9.98;;
36423;SDS011;22458;45.328;9.514;2022-08-04T05:20:08;11.30;;;9.85;;
36423;SDS011;22458;45.328;9.514;2022-08-04T05:22:42;11.18;;;10.07;;
36423;SDS011;22458;45.328;9.514;2022-08-04T05:28:25;15.10;;;11.18;;
36423;SDS011;22458;45.328;9.514;2022-08-04T05:30:46;15.35;;;12.88;;
36423;SDS011;22458;45.328;9.514;2022-08-04T05:33:19;14.85;;;12.88;;
36423;SDS011;22458;45.328;9.514;2022-08-04T05:36:01;15.23;;;12.10;;
36423;SDS011;22458;45.328;9.514;2022-08-04T05:38:34;15.25;;;13.02;;
36423;SDS011;22458;45.328;9.514;2022-08-04T05:41:02;15.02;;;13.00;;
36423;SDS011;22458;45.328;9.514;2022-08-04T05:43:29;14.65;;;12.75;;
36423;SDS011;22458;45.328;9.514;2022-08-04T05:46:07;17.58;;;12.02;;
36423;SDS011;22458;45.328;9.514;2022-08-04T05:48:35;14.63;;;11.48;;
36423;SDS011;22458;45.328;9.514;2022-08-04T05:51:02;13.15;;;11.85;;
36423;SDS011;22458;45.328;9.514;2022-08-04T05:53:29;13.40;;;11.97;;
36423;SDS011;22458;45.328;9.514;2022-08-04T05:55:56;13.25;;;11.85;;
36423;SDS011;22458;45.328;9.514;2022-08-04T05:58:24;14.05;;;11.90;;
36423;SDS011;22458;45.328;9.514;2022-08-04T06:00:53;12.93;;;11.50;;
36423;SDS011;22458;45.328;9.514;2022-08-04T06:03:20;12.10;;;10.88;;
36423;SDS011;22458;45.328;9.514;2022-08-04T06:05:47;14.02;;;11.35;;
36423;SDS011;22458;45.328;9.514;2022-08-04T06:08:15;11.30;;;10.18;;
36423;SDS011;22458;45.328;9.514;2022-08-04T06:10:41;11.73;;;10.52;;
36423;SDS011;22458;45.328;9.514;2022-08-04T06:13:12;13.65;;;10.65;;
36423;SDS011;22458;45.328;9.514;2022-08-04T06:15:41;12.02;;;10.75;;
36423;SDS011;22458;45.328;9.514;2022-08-04T06:18:11;11.38;;;10.07;;
36423;SDS011;22458;45.328;9.514;2022-08-04T06:20:39;11.88;;;10.45;;
36423;SDS011;22458;45.328;9.514;2022-08-04T06:23:07;14.30;;;9.23;;
36423;SDS011;22458;45.328;9.514;2022-08-04T06:25:36;11.45;;;9.73;;
36423;SDS011;22458;45.328;9.514;2022-08-04T06:28:05;9.43;;;8.27;;
36423;SDS011;22458;45.328;9.514;2022-08-04T06:30:32;10.88;;;9.05;;
36423;SDS011;22458;45.328;9.514;2022-08-04T06:33:01;10.43;;;9.20;;
36423;SDS011;22458;45.328;9.514;2022-08-04T06:35:37;11.48;;;8.20;;
36423;SDS011;22458;45.328;9.514;2022-08-04T06:38:04;12.10;;;9.55;;
36423;SDS011;22458;45.328;9.514;2022-08-04T06:40:32;15.25;;;10.45;;
36423;SDS011;22458;45.328;9.514;2022-08-04T06:43:02;12.38;;;9.68;;
36423;SDS011;22458;45.328;9.514;2022-08-04T06:45:30;11.27;;;9.45;;
36423;SDS011;22458;45.328;9.514;2022-08-04T06:47:58;14.88;;;10.20;;
36423;SDS011;22458;45.328;9.514;2022-08-04T06:50:25;10.07;;;8.65;;
36423;SDS011;22458;45.328;9.514;2022-08-04T06:52:51;11.23;;;8.73;;
36423;SDS011;22458;45.328;9.514;2022-08-04T06:55:17;12.25;;;8.90;;
36423;SDS011;22458;45.328;9.514;2022-08-04T06:57:42;11.43;;;8.80;;
36423;SDS011;22458;45.328;9.514;2022-08-04T07:00:11;8.32;;;7.45;;
36423;SDS011;22458;45.328;9.514;2022-08-04T07:02:43;10.30;;;7.73;;
36423;SDS011;22458;45.328;9.514;2022-08-04T07:05:10;13.20;;;7.60;;
36423;SDS011;22458;45.328;9.514;2022-08-04T07:07:37;8.43;;;7.00;;
36423;SDS011;22458;45.328;9.514;2022-08-04T07:10:04;9.83;;;7.27;;
36423;SDS011;22458;45.328;9.514;2022-08-04T07:12:32;9.48;;;7.05;;
36423;SDS011;22458;45.328;9.514;2022-08-04T07:14:58;8.50;;;7.25;;
36423;SDS011;22458;45.328;9.514;2022-08-04T07:17:25;9.20;;;7.18;;
36423;SDS011;22458;45.328;9.514;2022-08-04T07:19:53;7.88;;;6.63;;
36423;SDS011;22458;45.328;9.514;2022-08-04T07:22:19;13.77;;;7.63;;
36423;SDS011;22458;45.328;9.514;2022-08-04T07:24:45;6.93;;;6.22;;
36423;SDS011;22458;45.328;9.514;2022-08-04T07:27:11;9.52;;;6.93;;
36423;SDS011;22458;45.328;9.514;2022-08-04T07:29:37;10.43;;;7.30;;
36423;SDS011;22458;45.328;9.514;2022-08-04T07:32:05;9.25;;;6.97;;
36423;SDS011;22458;45.328;9.514;2022-08-04T07:34:31;10.90;;;7.40;;
36423;SDS011;22458;45.328;9.514;2022-08-04T07:36:57;7.68;;;6.25;;
36423;SDS011;22458;45.328;9.514;2022-08-04T07:39:28;7.95;;;6.80;;
36423;SDS011;22458;45.328;9.514;2022-08-04T07:41:57;10.07;;;6.82;;
36423;SDS011;22458;45.328;9.514;2022-08-04T07:44:23;7.93;;;6.63;;
36423;SDS011;22458;45.328;9.514;2022-08-04T07:46:49;8.10;;;5.88;;
36423;SDS011;22458;45.328;9.514;2022-08-04T07:49:15;8.23;;;6.30;;
36423;SDS011;22458;45.328;9.514;2022-08-04T07:51:41;7.22;;;5.97;;
36423;SDS011;22458;45.328;9.514;2022-08-04T07:54:07;11.25;;;7.97;;
36423;SDS011;22458;45.328;9.514;2022-08-04T07:56:36;6.40;;;5.70;;
36423;SDS011;22458;45.328;9.514;2022-08-04T07:59:03;7.05;;;5.38;;
36423;SDS011;22458;45.328;9.514;2022-08-04T08:01:30;7.10;;;6.15;;
36423;SDS011;22458;45.328;9.514;2022-08-04T08:03:57;6.05;;;5.30;;
36423;SDS011;22458;45.328;9.514;2022-08-04T08:06:24;7.47;;;5.40;;
36423;SDS011;22458;45.328;9.514;2022-08-04T08:08:51;6.75;;;4.55;;
36423;SDS011;22458;45.328;9.514;2022-08-04T08:11:17;9.45;;;4.30;;
36423;SDS011;22458;45.328;9.514;2022-08-04T08:13:43;7.22;;;4.35;;
36423;SDS011;22458;45.328;9.514;2022-08-04T08:16:09;6.63;;;5.07;;
36423;SDS011;22458;45.328;9.514;2022-08-04T08:18:36;6.20;;;5.18;;
36423;SDS011;22458;45.328;9.514;2022-08-04T08:21:02;9.85;;;4.97;;
36423;SDS011;22458;45.328;9.514;2022-08-04T08:23:29;7.85;;;5.00;;
36423;SDS011;22458;45.328;9.514;2022-08-04T08:25:56;9.77;;;5.38;;
36423;SDS011;22458;45.328;9.514;2022-08-04T08:28:23;7.38;;;4.88;;
36423;SDS011;22458;45.328;9.514;2022-08-04T08:30:49;6.10;;;4.55;;
36423;SDS011;22458;45.328;9.514;2022-08-04T08:33:15;7.18;;;4.68;;
36423;SDS011;22458;45.328;9.514;2022-08-04T08:38:37;4.65;;;4.00;;
36423;SDS011;22458;45.328;9.514;2022-08-04T08:46:55;5.47;;;3.83;;
36423;SDS011;22458;45.328;9.514;2022-08-04T09:12:08;4.80;;;2.80;;
36423;SDS011;22458;45.328;9.514;2022-08-04T09:14:53;3.50;;;3.20;;
36423;SDS011;22458;45.328;9.514;2022-08-04T09:17:28;4.32;;;3.20;;
36423;SDS011;22458;45.328;9.514;2022-08-04T09:20:07;4.18;;;2.88;;
36423;SDS011;22458;45.328;9.514;2022-08-04T09:22:49;7.68;;;3.03;;
36423;SDS011;22458;45.328;9.514;2022-08-04T09:25:27;3.13;;;2.70;;
36423;SDS011;22458;45.328;9.514;2022-08-04T09:27:59;4.07;;;3.00;;
36423;SDS011;22458;45.328;9.514;2022-08-04T09:30:31;5.53;;;2.63;;
36423;SDS011;22458;45.328;9.514;2022-08-04T09:33:15;6.20;;;3.53;;
36423;SDS011;22458;45.328;9.514;2022-08-04T09:36:08;5.03;;;3.05;;
36423;SDS011;22458;45.328;9.514;2022-08-04T09:38:56;5.13;;;2.85;;
36423;SDS011;22458;45.328;9.514;2022-08-04T09:42:15;6.47;;;2.05;;
36423;SDS011;22458;45.328;9.514;2022-08-04T09:50:03;2.83;;;1.98;;
36423;SDS011;22458;45.328;9.514;2022-08-04T10:01:09;4.10;;;2.65;;
36423;SDS011;22458;45.328;9.514;2022-08-04T10:03:42;3.13;;;1.70;;
36423;SDS011;22458;45.328;9.514;2022-08-04T10:12:01;2.75;;;1.33;;
36423;SDS011;22458;45.328;9.514;2022-08-04T10:14:47;1.75;;;1.10;;
36423;SDS011;22458;45.328;9.514;2022-08-04T10:25:48;2.45;;;1.23;;
36423;SDS011;22458;45.328;9.514;2022-08-04T10:28:20;2.38;;;1.40;;
36423;SDS011;22458;45.328;9.514;2022-08-04T10:30:53;1.53;;;1.27;;
36423;SDS011;22458;45.328;9.514;2022-08-04T10:33:32;3.70;;;1.50;;
36423;SDS011;22458;45.328;9.514;2022-08-04T10:36:08;2.05;;;1.58;;
36423;SDS011;22458;45.328;9.514;2022-08-04T10:38:45;1.85;;;1.20;;
36423;SDS011;22458;45.328;9.514;2022-08-04T10:41:20;3.45;;;1.60;;
36423;SDS011;22458;45.328;9.514;2022-08-04T10:46:56;4.82;;;1.92;;
36423;SDS011;22458;45.328;9.514;2022-08-04T10:49:32;2.03;;;1.65;;
36423;SDS011;22458;45.328;9.514;2022-08-04T10:52:10;3.17;;;1.50;;
36423;SDS011;22458;45.328;9.514;2022-08-04T10:54:46;1.88;;;1.42;;
36423;SDS011;22458;45.328;9.514;2022-08-04T10:57:18;3.60;;;1.83;;
36423;SDS011;22458;45.328;9.514;2022-08-04T11:00:00;3.92;;;1.40;;
36423;SDS011;22458;45.328;9.514;2022-08-04T11:05:57;3.28;;;1.60;;
36423;SDS011;22458;45.328;9.514;2022-08-04T11:08:16;2.60;;;1.42;;
36423;SDS011;22458;45.328;9.514;2022-08-04T11:11:13;1.30;;;1.20;;
36423;SDS011;22458;45.328;9.514;2022-08-04T11:13:48;1.67;;;1.30;;
36423;SDS011;22458;45.328;9.514;2022-08-04T11:16:31;3.45;;;1.48;;
36423;SDS011;22458;45.328;9.514;2022-08-04T11:19:47;4.13;;;1.50;;
36423;SDS011;22458;45.328;9.514;2022-08-04T11:22:14;1.98;;;1.20;;
36423;SDS011;22458;45.328;9.514;2022-08-04T11:24:51;2.10;;;1.25;;
36423;SDS011;22458;45.328;9.514;2022-08-04T11:30:23;4.10;;;1.30;;
36423;SDS011;22458;45.328;9.514;2022-08-04T11:35:34;2.90;;;0.98;;
36423;SDS011;22458;45.328;9.514;2022-08-04T11:38:17;2.60;;;1.15;;
36423;SDS011;22458;45.328;9.514;2022-08-04T11:40:47;2.03;;;0.95;;
36423;SDS011;22458;45.328;9.514;2022-08-04T11:43:41;1.10;;;0.90;;
36423;SDS011;22458;45.328;9.514;2022-08-04T11:46:06;2.05;;;1.15;;
36423;SDS011;22458;45.328;9.514;2022-08-04T11:48:40;2.17;;;1.00;;
36423;SDS011;22458;45.328;9.514;2022-08-04T11:51:11;3.03;;;0.98;;
36423;SDS011;22458;45.328;9.514;2022-08-04T11:53:38;1.35;;;1.08;;
36423;SDS011;22458;45.328;9.514;2022-08-04T11:56:08;1.65;;;1.00;;
36423;SDS011;22458;45.328;9.514;2022-08-04T11:58:36;4.32;;;1.20;;
36423;SDS011;22458;45.328;9.514;2022-08-04T12:01:17;2.33;;;1.25;;
36423;SDS011;22458;45.328;9.514;2022-08-04T12:06:24;2.88;;;1.25;;
36423;SDS011;22458;45.328;9.514;2022-08-04T12:09:27;2.45;;;1.10;;
36423;SDS011;22458;45.328;9.514;2022-08-04T12:17:42;2.53;;;0.80;;
36423;SDS011;22458;45.328;9.514;2022-08-04T12:20:28;2.13;;;1.55;;
36423;SDS011;22458;45.328;9.514;2022-08-04T12:22:56;2.72;;;1.02;;
36423;SDS011;22458;45.328;9.514;2022-08-04T12:25:23;2.13;;;1.10;;
36423;SDS011;22458;45.328;9.514;2022-08-04T12:30:44;2.70;;;1.10;;
36423;SDS011;22458;45.328;9.514;2022-08-04T12:33:21;2.05;;;1.08;;
36423;SDS011;22458;45.328;9.514;2022-08-04T12:35:59;2.45;;;0.80;;
36423;SDS011;22458;45.328;9.514;2022-08-04T12:38:32;4.43;;;1.20;;
36423;SDS011;22458;45.328;9.514;2022-08-04T12:40:59;3.47;;;1.92;;
36423;SDS011;22458;45.328;9.514;2022-08-04T12:43:38;2.35;;;1.33;;
36423;SDS011;22458;45.328;9.514;2022-08-04T12:46:08;1.25;;;1.05;;
36423;SDS011;22458;45.328;9.514;2022-08-04T12:51:02;2.05;;;1.20;;
36423;SDS011;22458;45.328;9.514;2022-08-04T12:53:35;1.42;;;1.27;;
36423;SDS011;22458;45.328;9.514;2022-08-04T12:56:03;1.25;;;0.80;;
36423;SDS011;22458;45.328;9.514;2022-08-04T13:01:09;2.08;;;0.90;;
36423;SDS011;22458;45.328;9.514;2022-08-04T13:03:43;1.88;;;1.25;;
36423;SDS011;22458;45.328;9.514;2022-08-04T13:06:35;2.30;;;1.25;;
36423;SDS011;22458;45.328;9.514;2022-08-04T13:09:03;2.20;;;1.15;;
36423;SDS011;22458;45.328;9.514;2022-08-04T13:11:39;3.17;;;1.15;;
36423;SDS011;22458;45.328;9.514;2022-08-04T13:14:06;4.22;;;1.38;;
36423;SDS011;22458;45.328;9.514;2022-08-04T13:19:06;1.80;;;1.25;;
36423;SDS011;22458;45.328;9.514;2022-08-04T13:21:33;2.55;;;1.50;;
36423;SDS011;22458;45.328;9.514;2022-08-04T13:24:05;2.53;;;1.17;;
36423;SDS011;22458;45.328;9.514;2022-08-04T13:26:33;2.70;;;1.25;;
36423;SDS011;22458;45.328;9.514;2022-08-04T13:29:01;1.58;;;0.90;;
36423;SDS011;22458;45.328;9.514;2022-08-04T13:31:30;2.83;;;1.40;;
36423;SDS011;22458;45.328;9.514;2022-08-04T13:34:05;1.60;;;1.27;;
36423;SDS011;22458;45.328;9.514;2022-08-04T13:36:33;4.95;;;1.30;;
36423;SDS011;22458;45.328;9.514;2022-08-04T13:39:06;3.47;;;1.17;;
36423;SDS011;22458;45.328;9.514;2022-08-04T13:41:38;3.33;;;1.33;;
36423;SDS011;22458;45.328;9.514;2022-08-04T13:44:07;2.45;;;1.17;;
36423;SDS011;22458;45.328;9.514;2022-08-04T13:46:39;4.15;;;1.42;;
36423;SDS011;22458;45.328;9.514;2022-08-04T13:49:11;2.80;;;1.30;;
36423;SDS011;22458;45.328;9.514;2022-08-04T13:52:04;2.85;;;1.17;;
36423;SDS011;22458;45.328;9.514;2022-08-04T13:54:36;1.67;;;1.17;;
36423;SDS011;22458;45.328;9.514;2022-08-04T13:57:05;2.15;;;1.10;;
36423;SDS011;22458;45.328;9.514;2022-08-04T13:59:56;3.28;;;1.23;;
36423;SDS011;22458;45.328;9.514;2022-08-04T14:05:23;2.25;;;1.13;;
36423;SDS011;22458;45.328;9.514;2022-08-04T14:07:58;1.35;;;1.23;;
36423;SDS011;22458;45.328;9.514;2022-08-04T14:10:25;1.35;;;1.23;;
36423;SDS011;22458;45.328;9.514;2022-08-04T14:12:51;2.95;;;1.23;;
36423;SDS011;22458;45.328;9.514;2022-08-04T14:21:08;2.47;;;1.17;;
36423;SDS011;22458;45.328;9.514;2022-08-04T14:26:22;1.98;;;1.25;;
36423;SDS011;22458;45.328;9.514;2022-08-04T14:28:48;3.15;;;1.20;;
36423;SDS011;22458;45.328;9.514;2022-08-04T14:31:16;1.20;;;1.10;;
36423;SDS011;22458;45.328;9.514;2022-08-04T14:33:44;2.20;;;0.90;;
36423;SDS011;22458;45.328;9.514;2022-08-04T14:36:10;2.30;;;1.17;;
36423;SDS011;22458;45.328;9.514;2022-08-04T14:38:45;1.40;;;1.10;;
36423;SDS011;22458;45.328;9.514;2022-08-04T14:41:24;3.50;;;1.08;;
36423;SDS011;22458;45.328;9.514;2022-08-04T14:44:09;1.63;;;1.13;;
36423;SDS011;22458;45.328;9.514;2022-08-04T14:46:47;2.60;;;1.00;;
36423;SDS011;22458;45.328;9.514;2022-08-04T14:49:15;2.15;;;1.13;;
36423;SDS011;22458;45.328;9.514;2022-08-04T14:51:43;1.60;;;1.05;;
36423;SDS011;22458;45.328;9.514;2022-08-04T14:54:13;2.42;;;1.10;;
36423;SDS011;22458;45.328;9.514;2022-08-04T14:56:40;1.92;;;1.10;;
36423;SDS011;22458;45.328;9.514;2022-08-04T14:59:17;1.40;;;1.15;;
36423;SDS011;22458;45.328;9.514;2022-08-04T15:01:43;2.25;;;1.20;;
36423;SDS011;22458;45.328;9.514;2022-08-04T15:04:10;1.05;;;0.90;;
36423;SDS011;22458;45.328;9.514;2022-08-04T15:06:37;1.30;;;1.05;;
36423;SDS011;22458;45.328;9.514;2022-08-04T15:09:04;3.20;;;1.10;;
36423;SDS011;22458;45.328;9.514;2022-08-04T15:11:33;4.50;;;1.40;;
36423;SDS011;22458;45.328;9.514;2022-08-04T15:16:26;2.92;;;1.08;;
36423;SDS011;22458;45.328;9.514;2022-08-04T15:18:54;2.63;;;1.10;;
36423;SDS011;22458;45.328;9.514;2022-08-04T15:21:21;1.77;;;1.13;;
36423;SDS011;22458;45.328;9.514;2022-08-04T15:24:08;1.42;;;1.25;;
36423;SDS011;22458;45.328;9.514;2022-08-04T15:26:38;2.78;;;1.50;;
36423;SDS011;22458;45.328;9.514;2022-08-04T15:29:22;1.27;;;1.00;;
36423;SDS011;22458;45.328;9.514;2022-08-04T15:32:01;2.53;;;1.30;;
36423;SDS011;22458;45.328;9.514;2022-08-04T15:34:42;2.88;;;1.10;;
36423;SDS011;22458;45.328;9.514;2022-08-04T15:37:30;1.58;;;1.25;;
36423;SDS011;22458;45.328;9.514;2022-08-04T15:40:11;2.17;;;1.20;;
36423;SDS011;22458;45.328;9.514;2022-08-04T15:42:46;3.60;;;1.20;;
36423;SDS011;22458;45.328;9.514;2022-08-04T15:45:20;1.58;;;1.20;;
36423;SDS011;22458;45.328;9.514;2022-08-04T15:50:29;1.63;;;1.27;;
36423;SDS011;22458;45.328;9.514;2022-08-04T15:55:35;4.18;;;1.70;;
36423;SDS011;22458;45.328;9.514;2022-08-04T16:19:09;2.30;;;1.42;;
36423;SDS011;22458;45.328;9.514;2022-08-04T16:24:56;2.70;;;1.30;;
36423;SDS011;22458;45.328;9.514;2022-08-04T16:27:33;3.17;;;1.10;;
36423;SDS011;22458;45.328;9.514;2022-08-04T16:30:04;3.85;;;1.33;;
36423;SDS011;22458;45.328;9.514;2022-08-04T16:32:43;2.08;;;1.38;;
36423;SDS011;22458;45.328;9.514;2022-08-04T16:35:23;2.47;;;1.10;;
36423;SDS011;22458;45.328;9.514;2022-08-04T16:37:51;2.45;;;1.40;;
36423;SDS011;22458;45.328;9.514;2022-08-04T16:40:36;1.48;;;1.20;;
36423;SDS011;22458;45.328;9.514;2022-08-04T16:43:12;1.55;;;1.00;;
36423;SDS011;22458;45.328;9.514;2022-08-04T16:45:52;2.15;;;1.20;;
36423;SDS011;22458;45.328;9.514;2022-08-04T16:53:21;1.92;;;1.15;;
36423;SDS011;22458;45.328;9.514;2022-08-04T16:55:52;4.85;;;1.35;;
36423;SDS011;22458;45.328;9.514;2022-08-04T17:01:07;4.43;;;1.42;;
36423;SDS011;22458;45.328;9.514;2022-08-04T17:03:37;2.15;;;1.30;;
36423;SDS011;22458;45.328;9.514;2022-08-04T17:06:10;2.05;;;1.27;;
36423;SDS011;22458;45.328;9.514;2022-08-04T17:08:38;3.20;;;1.25;;
36423;SDS011;22458;45.328;9.514;2022-08-04T17:11:05;3.65;;;1.40;;
36423;SDS011;22458;45.328;9.514;2022-08-04T17:13:40;1.73;;;1.20;;
36423;SDS011;22458;45.328;9.514;2022-08-04T17:16:10;2.20;;;1.25;;
36423;SDS011;22458;45.328;9.514;2022-08-04T17:18:44;3.75;;;1.60;;
36423;SDS011;22458;45.328;9.514;2022-08-04T17:21:16;1.52;;;1.40;;
36423;SDS011;22458;45.328;9.514;2022-08-04T17:23:44;2.55;;;1.27;;
36423;SDS011;22458;45.328;9.514;2022-08-04T17:26:17;4.50;;;1.40;;
36423;SDS011;22458;45.328;9.514;2022-08-04T17:28:51;1.98;;;1.15;;
36423;SDS011;22458;45.328;9.514;2022-08-04T17:31:21;2.88;;;2.03;;
36423;SDS011;22458;45.328;9.514;2022-08-04T17:33:50;4.30;;;1.30;;
36423;SDS011;22458;45.328;9.514;2022-08-04T17:36:18;2.92;;;1.80;;
36423;SDS011;22458;45.328;9.514;2022-08-04T17:38:49;2.03;;;1.15;;
36423;SDS011;22458;45.328;9.514;2022-08-04T17:41:23;3.60;;;1.25;;
36423;SDS011;22458;45.328;9.514;2022-08-04T17:51:51;1.30;;;1.17;;
36423;SDS011;22458;45.328;9.514;2022-08-04T17:56:55;2.95;;;1.17;;
36423;SDS011;22458;45.328;9.514;2022-08-04T17:59:23;2.35;;;1.30;;
36423;SDS011;22458;45.328;9.514;2022-08-04T18:09:30;2.10;;;1.40;;
36423;SDS011;22458;45.328;9.514;2022-08-04T18:12:01;1.80;;;1.40;;
36423;SDS011;22458;45.328;9.514;2022-08-04T18:14:44;2.30;;;1.30;;
36423;SDS011;22458;45.328;9.514;2022-08-04T18:17:11;4.50;;;1.30;;
36423;SDS011;22458;45.328;9.514;2022-08-04T18:19:48;3.40;;;1.77;;
36423;SDS011;22458;45.328;9.514;2022-08-04T18:22:16;6.05;;;1.45;;
36423;SDS011;22458;45.328;9.514;2022-08-04T18:24:42;4.60;;;1.45;;
36423;SDS011;22458;45.328;9.514;2022-08-04T18:27:07;2.13;;;1.48;;
36423;SDS011;22458;45.328;9.514;2022-08-04T18:29:34;4.40;;;1.58;;
36423;SDS011;22458;45.328;9.514;2022-08-04T18:31:59;3.33;;;1.73;;
36423;SDS011;22458;45.328;9.514;2022-08-04T18:34:25;3.50;;;1.77;;
36423;SDS011;22458;45.328;9.514;2022-08-04T18:36:52;3.83;;;1.73;;
36423;SDS011;22458;45.328;9.514;2022-08-04T18:42:05;3.33;;;1.98;;
36423;SDS011;22458;45.328;9.514;2022-08-04T18:44:31;3.15;;;1.60;;
36423;SDS011;22458;45.328;9.514;2022-08-04T18:46:58;1.60;;;1.27;;
36423;SDS011;22458;45.328;9.514;2022-08-04T18:49:25;3.88;;;1.60;;
36423;SDS011;22458;45.328;9.514;2022-08-04T18:51:51;5.05;;;1.58;;
36423;SDS011;22458;45.328;9.514;2022-08-04T18:54:18;2.80;;;1.63;;
36423;SDS011;22458;45.328;9.514;2022-08-04T18:56:44;6.75;;;2.13;;
36423;SDS011;22458;45.328;9.514;2022-08-04T18:59:10;8.10;;;1.95;;
36423;SDS011;22458;45.328;9.514;2022-08-04T19:01:36;5.05;;;1.55;;
36423;SDS011;22458;45.328;9.514;2022-08-04T19:04:03;3.72;;;1.55;;
36423;SDS011;22458;45.328;9.514;2022-08-04T19:06:29;6.53;;;1.85;;
36423;SDS011;22458;45.328;9.514;2022-08-04T19:08:55;2.25;;;1.30;;
36423;SDS011;22458;45.328;9.514;2022-08-04T19:11:20;2.58;;;1.60;;
36423;SDS011;22458;45.328;9.514;2022-08-04T19:13:46;4.28;;;2.00;;
36423;SDS011;22458;45.328;9.514;2022-08-04T19:16:12;3.28;;;1.60;;
36423;SDS011;22458;45.328;9.514;2022-08-04T19:18:38;1.70;;;1.40;;
36423;SDS011;22458;45.328;9.514;2022-08-04T19:21:04;4.50;;;1.95;;
36423;SDS011;22458;45.328;9.514;2022-08-04T19:23:29;3.90;;;1.92;;
36423;SDS011;22458;45.328;9.514;2022-08-04T19:25:56;3.75;;;1.83;;
36423;SDS011;22458;45.328;9.514;2022-08-04T19:28:23;4.35;;;1.83;;
36423;SDS011;22458;45.328;9.514;2022-08-04T19:30:49;2.17;;;1.40;;
36423;SDS011;22458;45.328;9.514;2022-08-04T19:33:15;3.10;;;1.80;;
36423;SDS011;22458;45.328;9.514;2022-08-04T19:35:41;4.72;;;2.10;;
36423;SDS011;22458;45.328;9.514;2022-08-04T19:38:08;3.30;;;1.90;;
36423;SDS011;22458;45.328;9.514;2022-08-04T19:40:35;2.15;;;1.90;;
36423;SDS011;22458;45.328;9.514;2022-08-04T19:43:02;6.77;;;1.90;;
36423;SDS011;22458;45.328;9.514;2022-08-04T19:45:28;4.60;;;1.80;;
36423;SDS011;22458;45.328;9.514;2022-08-04T19:47:53;2.90;;;1.90;;
36423;SDS011;22458;45.328;9.514;2022-08-04T19:50:19;9.07;;;1.90;;
36423;SDS011;22458;45.328;9.514;2022-08-04T19:52:45;5.82;;;2.20;;
36423;SDS011;22458;45.328;9.514;2022-08-04T19:55:11;4.38;;;2.15;;
36423;SDS011;22458;45.328;9.514;2022-08-04T19:57:37;5.22;;;1.75;;
36423;SDS011;22458;45.328;9.514;2022-08-04T20:00:10;7.45;;;1.90;;
36423;SDS011;22458;45.328;9.514;2022-08-04T20:02:38;4.45;;;1.88;;
36423;SDS011;22458;45.328;9.514;2022-08-04T20:05:05;2.75;;;2.30;;
36423;SDS011;22458;45.328;9.514;2022-08-04T20:07:31;13.90;;;2.63;;
36423;SDS011;22458;45.328;9.514;2022-08-04T20:09:57;3.15;;;2.42;;
36423;SDS011;22458;45.328;9.514;2022-08-04T20:12:23;4.82;;;2.33;;
36423;SDS011;22458;45.328;9.514;2022-08-04T20:14:49;8.30;;;2.20;;
36423;SDS011;22458;45.328;9.514;2022-08-04T20:17:15;5.72;;;2.15;;
36423;SDS011;22458;45.328;9.514;2022-08-04T20:19:40;8.40;;;3.25;;
36423;SDS011;22458;45.328;9.514;2022-08-04T20:22:06;7.82;;;2.35;;
36423;SDS011;22458;45.328;9.514;2022-08-04T20:24:32;5.85;;;2.33;;
36423;SDS011;22458;45.328;9.514;2022-08-04T20:26:58;6.82;;;2.47;;
36423;SDS011;22458;45.328;9.514;2022-08-04T20:29:24;4.00;;;2.85;;
36423;SDS011;22458;45.328;9.514;2022-08-04T20:31:49;5.95;;;2.45;;
36423;SDS011;22458;45.328;9.514;2022-08-04T20:34:15;5.07;;;2.63;;
36423;SDS011;22458;45.328;9.514;2022-08-04T20:36:41;3.65;;;2.45;;
36423;SDS011;22458;45.328;9.514;2022-08-04T20:39:07;8.90;;;2.60;;